createdAt,value
2016-07-10T00:00:02.872Z,71.63
2016-07-10T00:15:02.884Z,72.17
2016-07-10T00:30:02.886Z,71.62
2016-07-10T00:45:07.531Z,72.06
2016-07-10T01:00:07.473Z,71.06
2016-07-10T01:15:13.242Z,71.85
2016-07-10T01:30:13.414Z,72.7
2016-07-10T01:45:07.527Z,72.26
2016-07-10T02:00:07.490Z,72.3
2016-07-10T02:15:07.481Z,73.34
2016-07-10T02:30:02.894Z,73.64
2016-07-10T02:45:07.568Z,73.81
2016-07-10T03:00:13.715Z,74.3
2016-07-10T03:15:07.840Z,73.88
2016-07-10T03:30:07.498Z,73.52
2016-07-10T03:45:07.547Z,73.63
2016-07-10T04:00:07.487Z,74.19
2016-07-10T04:15:07.491Z,74.65
2016-07-10T04:30:07.493Z,74.93
2016-07-10T04:45:17.479Z,74.79
2016-07-10T05:00:02.910Z,76.08
2016-07-10T05:15:07.017Z,76.07
2016-07-10T05:30:09.225Z,74.4
2016-07-10T05:45:09.132Z,75.36
2016-07-10T06:00:15.769Z,75.03
2016-07-10T06:15:07.857Z,75.78
2016-07-10T06:30:07.867Z,74.24
2016-07-10T06:45:17.654Z,72.13
2016-07-10T07:00:07.511Z,73.5
2016-07-10T07:15:07.597Z,71.79
2016-07-10T07:30:02.940Z,68.28
2016-07-10T07:45:02.948Z,65.54
2016-07-10T08:00:05.056Z,61.37
2016-07-10T08:15:04.961Z,57.21
2016-07-10T08:30:08.056Z,57.56
2016-07-10T08:45:02.984Z,53.78
2016-07-10T09:00:09.289Z,52.89
2016-07-10T09:15:06.754Z,50.98
2016-07-10T09:30:09.326Z,49.62
2016-07-10T09:45:05.088Z,47.01
2016-07-10T10:00:02.996Z,45.11
2016-07-10T10:15:07.620Z,45.2
2016-07-10T10:30:05.124Z,45.8
2016-07-10T10:45:07.161Z,45.4
2016-07-10T11:00:03.014Z,44.46
2016-07-10T11:15:03.023Z,47.65
2016-07-10T11:30:11.342Z,50.16
2016-07-10T11:45:06.009Z,49.66
2016-07-10T12:00:06.866Z,49.58
2016-07-10T12:15:05.130Z,49.53
2016-07-10T12:30:09.245Z,50.74
2016-07-10T12:45:03.050Z,51.69
2016-07-10T13:00:05.155Z,52.61
2016-07-10T13:15:03.093Z,51.87
2016-07-10T13:30:07.672Z,51.28
2016-07-10T13:45:03.082Z,51.9
2016-07-10T14:00:07.673Z,52.41
2016-07-10T14:15:05.227Z,53.12
2016-07-10T14:30:05.303Z,50.82
2016-07-10T14:45:03.087Z,51.48
2016-07-10T15:00:03.100Z,49.74
2016-07-10T15:15:05.146Z,48.61
2016-07-10T15:30:05.202Z,47.09
2016-07-10T15:45:05.230Z,46.81
2016-07-10T16:00:05.209Z,47.96
2016-07-10T16:15:05.152Z,48.55
2016-07-10T16:30:03.119Z,49.78
2016-07-10T16:45:03.135Z,50.56
2016-07-10T17:00:13.664Z,51.34
2016-07-10T17:15:05.295Z,52.35
2016-07-10T17:30:06.081Z,52.87
2016-07-10T17:45:15.776Z,54.49
2016-07-10T18:00:03.161Z,55.36
2016-07-10T18:15:03.161Z,56.63
2016-07-10T18:30:06.962Z,57.29
2016-07-10T18:45:08.209Z,58.19
2016-07-10T19:00:08.214Z,58.98
2016-07-10T19:15:07.390Z,60.52
2016-07-10T19:30:05.271Z,61.04
2016-07-10T19:45:06.146Z,62
2016-07-10T20:00:03.169Z,62.48
2016-07-10T20:15:03.179Z,62.59
2016-07-10T20:30:07.790Z,62.77
2016-07-10T20:45:07.821Z,63.34
2016-07-10T21:00:08.105Z,63.65
2016-07-10T21:15:17.607Z,64.01
2016-07-10T21:30:03.181Z,63.88
2016-07-10T21:45:03.177Z,64.97
2016-07-10T22:00:07.844Z,65.7
2016-07-10T22:15:07.768Z,66.09
2016-07-10T22:30:07.194Z,66.77
2016-07-10T22:45:07.785Z,67.62
2016-07-10T23:00:14.530Z,68
2016-07-10T23:15:07.783Z,67.99
2016-07-10T23:30:07.772Z,68.21
2016-07-10T23:45:09.406Z,68.28
